Time;durP1;ratioP1;P1;durP2;ratioP2;P2;SDS_P1;SDS_P2;PMS_P1;PMS_P2;Temp;Humidity;BMP_temperature;BMP_pressure;BME280_temperature;BME280_humidity;BME280_pressure;Samples;Min_cycle;Max_cycle;Signal;HPM_P1;HPM_P2
2021/06/02 00:00:15;;;;;;;8.10;3.35;;;18.20;57.90;;;;;;5095361;28;20032;-78
2021/06/02 00:02:49;;;;;;;8.77;2.70;;;18.20;58.00;;;;;;5074754;28;20093;-78
2021/06/02 00:05:16;;;;;;;15.07;3.05;;;18.10;58.00;;;;;;5092744;28;20499;-78
2021/06/02 00:07:43;;;;;;;7.55;2.92;;;18.10;58.00;;;;;;5091964;28;20326;-78
2021/06/02 00:10:11;;;;;;;7.78;3.20;;;18.00;57.90;;;;;;5078499;28;20043;-78
2021/06/02 00:12:37;;;;;;;7.45;3.30;;;18.00;58.50;;;;;;5108893;28;20055;-79
2021/06/02 00:15:06;;;;;;;6.40;2.92;;;18.00;58.60;;;;;;5094813;28;20024;-78
2021/06/02 00:17:32;;;;;;;7.60;3.00;;;18.00;58.20;;;;;;5094531;28;20446;-78
2021/06/02 00:19:58;;;;;;;6.07;2.85;;;18.00;58.20;;;;;;5092223;28;20099;-78
2021/06/02 00:22:24;;;;;;;8.63;2.80;;;18.00;58.30;;;;;;5077656;28;20116;-79
2021/06/02 00:24:49;;;;;;;5.47;2.78;;;18.00;58.50;;;;;;5095438;28;20024;-79
2021/06/02 00:27:17;;;;;;;6.07;3.05;;;18.00;58.60;;;;;;5095620;28;20035;-78
2021/06/02 00:29:44;;;;;;;9.50;3.03;;;17.90;58.50;;;;;;5110353;28;20050;-79
2021/06/02 00:32:11;;;;;;;3.00;2.65;;;18.00;58.50;;;;;;5087136;28;20043;-78
2021/06/02 00:34:37;;;;;;;4.43;2.78;;;17.90;58.70;;;;;;5082025;28;20035;-78
2021/06/02 00:37:06;;;;;;;6.60;2.95;;;17.90;58.80;;;;;;5092636;28;20035;-78
2021/06/02 00:39:32;;;;;;;4.00;2.65;;;17.80;58.60;;;;;;5088344;28;20094;-78
2021/06/02 00:41:58;;;;;;;6.93;2.90;;;17.80;58.40;;;;;;5108481;28;20031;-78
2021/06/02 00:44:24;;;;;;;8.25;3.00;;;17.80;58.60;;;;;;5098855;28;20031;-78
2021/06/02 00:46:51;;;;;;;10.07;2.95;;;17.70;58.40;;;;;;5111369;28;20024;-78
2021/06/02 00:49:24;;;;;;;12.15;3.20;;;17.70;58.40;;;;;;5098380;28;20031;-78
2021/06/02 00:52:06;;;;;;;9.82;3.13;;;17.60;59.10;;;;;;5116666;28;20106;-79
2021/06/02 00:54:36;;;;;;;5.82;3.58;;;17.60;59.40;;;;;;5081621;28;20035;-78
2021/06/02 00:57:11;;;;;;;5.82;2.95;;;17.50;59.60;;;;;;5093638;28;20035;-79
2021/06/02 00:59:50;;;;;;;8.20;3.38;;;17.40;60.00;;;;;;5115660;28;20031;-79
2021/06/02 01:02:21;;;;;;;4.82;3.10;;;17.40;60.50;;;;;;5114477;28;20391;-78
2021/06/02 01:04:49;;;;;;;7.07;3.08;;;17.30;60.40;;;;;;5084402;28;20024;-78
2021/06/02 01:07:14;;;;;;;5.03;3.30;;;17.30;61.00;;;;;;5106322;28;20111;-79
2021/06/02 01:09:46;;;;;;;4.45;3.05;;;17.20;61.40;;;;;;5084881;28;20112;-78
2021/06/02 01:12:17;;;;;;;4.43;2.75;;;17.20;62.20;;;;;;5110728;28;20495;-78
2021/06/02 01:14:45;;;;;;;4.35;2.88;;;17.10;62.50;;;;;;5116334;28;20102;-78
2021/06/02 01:17:15;;;;;;;5.72;3.00;;;17.10;63.20;;;;;;5114516;28;20015;-78
2021/06/02 01:19:41;;;;;;;5.90;3.08;;;17.00;62.30;;;;;;5062760;28;20689;-78
2021/06/02 01:22:07;;;;;;;10.52;3.58;;;17.00;62.20;;;;;;5087221;28;20097;-78
2021/06/02 01:24:33;;;;;;;7.28;3.25;;;17.00;62.10;;;;;;5098153;28;20028;-79
2021/06/02 01:27:03;;;;;;;6.88;3.38;;;16.90;62.00;;;;;;5081016;28;20020;-79
2021/06/02 01:29:29;;;;;;;7.35;3.38;;;16.90;62.20;;;;;;5095813;28;20023;-78
2021/06/02 01:32:10;;;;;;;6.22;3.38;;;16.90;62.20;;;;;;5078103;28;20495;-78
2021/06/02 01:34:57;;;;;;;5.32;3.40;;;16.90;62.20;;;;;;5096045;28;20038;-84
2021/06/02 01:37:52;;;;;;;10.95;3.20;;;16.90;62.40;;;;;;5114257;28;20084;-85
2021/06/02 01:41:05;;;;;;;4.43;3.38;;;16.80;62.40;;;;;;5110882;28;20024;-85
2021/06/02 01:43:58;;;;;;;9.77;3.92;;;16.80;62.40;;;;;;5083286;28;20036;-85
2021/06/02 01:46:49;;;;;;;5.38;3.38;;;16.70;62.60;;;;;;5097254;28;20084;-84
2021/06/02 01:49:52;;;;;;;11.23;3.47;;;16.70;62.50;;;;;;5110839;28;20635;-81
2021/06/02 01:52:50;;;;;;;6.28;3.70;;;16.70;62.80;;;;;;5115140;28;20040;-82
2021/06/02 01:55:25;;;;;;;5.68;3.28;;;16.70;62.90;;;;;;5088585;28;20020;-81
2021/06/02 01:58:22;;;;;;;8.55;3.35;;;16.60;62.80;;;;;;5115192;28;20080;-81
2021/06/02 02:01:21;;;;;;;6.65;3.65;;;16.60;62.80;;;;;;5115354;28;20529;-82
2021/06/02 02:04:05;;;;;;;7.35;3.30;;;16.60;62.90;;;;;;5084148;28;20016;-82
2021/06/02 02:06:58;;;;;;;9.98;4.22;;;16.60;62.60;;;;;;5111901;28;20107;-81
2021/06/02 02:09:54;;;;;;;5.53;3.60;;;16.60;62.90;;;;;;5095458;28;20069;-81
2021/06/02 02:12:32;;;;;;;7.82;3.95;;;16.60;63.30;;;;;;5076780;28;20032;-81
2021/06/02 02:15:25;;;;;;;9.45;3.63;;;16.60;63.50;;;;;;5076525;28;20020;-81
2021/06/02 02:18:11;;;;;;;5.78;3.45;;;16.50;63.60;;;;;;5092954;28;20387;-82
2021/06/02 02:21:14;;;;;;;7.50;3.22;;;16.50;64.20;;;;;;5098981;28;20511;-81
2021/06/02 02:23:52;;;;;;;6.50;3.60;;;16.40;64.50;;;;;;5112949;28;20031;-81
2021/06/02 02:26:29;;;;;;;9.73;3.80;;;16.40;64.70;;;;;;5114804;28;20028;-81
2021/06/02 02:29:16;;;;;;;7.93;4.00;;;16.30;64.80;;;;;;5091382;28;20036;-81
2021/06/02 02:31:49;;;;;;;6.30;4.03;;;16.30;65.00;;;;;;5092972;28;20028;-81
2021/06/02 02:34:31;;;;;;;10.30;3.67;;;16.30;65.10;;;;;;5114721;28;20020;-81
2021/06/02 02:37:30;;;;;;;5.40;3.70;;;16.20;65.00;;;;;;5095814;28;20034;-81
2021/06/02 02:40:13;;;;;;;11.32;4.28;;;16.10;65.20;;;;;;5091068;28;20032;-81
2021/06/02 02:42:50;;;;;;;6.25;3.78;;;16.10;65.40;;;;;;5096256;28;20031;-81
2021/06/02 02:45:33;;;;;;;8.82;4.25;;;16.10;65.40;;;;;;5102469;28;20354;-81
2021/06/02 02:48:36;;;;;;;12.18;4.03;;;16.00;65.70;;;;;;5105178;28;20024;-81
2021/06/02 02:51:05;;;;;;;5.35;3.80;;;16.00;66.20;;;;;;5113184;28;20550;-81
2021/06/02 02:54:02;;;;;;;9.90;3.58;;;16.00;66.40;;;;;;5098694;28;20035;-81
2021/06/02 02:56:48;;;;;;;12.82;4.32;;;15.90;66.70;;;;;;5075667;28;20048;-81
2021/06/02 02:59:35;;;;;;;8.07;3.90;;;15.90;67.10;;;;;;5110919;28;20031;-81
2021/06/02 03:02:12;;;;;;;12.65;4.30;;;15.80;67.20;;;;;;5095771;28;20574;-81
2021/06/02 03:04:46;;;;;;;14.48;4.15;;;15.80;67.40;;;;;;5095339;28;20024;-81
2021/06/02 03:07:13;;;;;;;6.93;3.63;;;15.70;67.40;;;;;;5086838;28;20111;-81
2021/06/02 03:09:50;;;;;;;9.65;4.30;;;15.60;67.40;;;;;;5075757;28;20028;-81
2021/06/02 03:12:43;;;;;;;9.07;4.10;;;15.60;67.60;;;;;;5091584;28;20024;-81
2021/06/02 03:15:26;;;;;;;8.32;4.00;;;15.50;67.80;;;;;;5095042;28;20472;-81
2021/06/02 03:18:01;;;;;;;12.07;4.22;;;15.50;68.00;;;;;;5092754;28;20100;-81
2021/06/02 03:20:34;;;;;;;5.72;4.05;;;15.40;68.20;;;;;;5094796;28;20020;-82
2021/06/02 03:23:25;;;;;;;6.20;4.00;;;15.40;68.40;;;;;;5083641;28;20115;-82
2021/06/02 03:26:07;;;;;;;7.55;4.05;;;15.40;68.40;;;;;;5095004;28;21808;-81
2021/06/02 03:28:36;;;;;;;9.75;4.15;;;15.30;68.40;;;;;;5075456;28;20495;-81
2021/06/02 03:31:15;;;;;;;6.90;4.30;;;15.40;68.30;;;;;;5094138;28;20035;-81
2021/06/02 03:34:07;;;;;;;8.02;4.07;;;15.40;68.30;;;;;;5095293;28;20027;-81
2021/06/02 03:36:33;;;;;;;12.40;4.28;;;15.40;68.50;;;;;;5095333;28;20580;-81
2021/06/02 03:39:33;;;;;;;9.13;4.32;;;15.30;68.50;;;;;;5113318;28;20024;-81
2021/06/02 03:42:27;;;;;;;6.55;4.10;;;15.40;68.60;;;;;;5086675;28;20024;-81
2021/06/02 03:45:12;;;;;;;8.15;4.20;;;15.40;68.80;;;;;;5088195;28;20429;-81
2021/06/02 03:47:44;;;;;;;6.50;4.10;;;15.30;69.00;;;;;;5102303;28;20024;-81
2021/06/02 03:50:28;;;;;;;10.18;3.80;;;15.30;68.90;;;;;;5094375;28;20024;-81
2021/06/02 03:53:23;;;;;;;5.80;4.07;;;15.40;69.10;;;;;;5079772;28;20028;-81
2021/06/02 03:56:05;;;;;;;12.18;4.10;;;15.30;69.00;;;;;;5108185;28;20100;-81
2021/06/02 03:59:06;;;;;;;8.55;4.03;;;15.30;69.10;;;;;;5093074;28;20098;-81
2021/06/02 04:01:50;;;;;;;8.15;4.47;;;15.40;69.00;;;;;;5074605;28;20028;-85
2021/06/02 04:04:24;;;;;;;8.32;5.20;;;15.40;68.80;;;;;;5104555;28;20099;-85
2021/06/02 04:07:02;;;;;;;9.35;5.15;;;15.30;68.90;;;;;;5103894;28;20028;-84
2021/06/02 04:09:32;;;;;;;8.35;4.60;;;15.20;69.00;;;;;;5095222;28;20033;-85
2021/06/02 04:12:17;;;;;;;8.88;4.57;;;15.30;69.00;;;;;;5113205;28;20030;-85
2021/06/02 04:14:54;;;;;;;13.10;5.38;;;15.30;69.10;;;;;;5111932;28;20026;-85
2021/06/02 04:17:22;;;;;;;8.57;4.45;;;15.30;69.00;;;;;;5113405;28;20028;-85
2021/06/02 04:19:49;;;;;;;8.32;4.45;;;15.40;69.00;;;;;;5113148;28;20032;-84
2021/06/02 04:22:22;;;;;;;8.27;4.18;;;15.30;69.00;;;;;;5078035;28;20387;-85
2021/06/02 04:24:49;;;;;;;9.02;5.05;;;15.30;69.10;;;;;;5094810;28;20046;-85
2021/06/02 04:27:17;;;;;;;8.40;4.43;;;15.40;69.00;;;;;;5094829;28;20032;-84
2021/06/02 04:29:46;;;;;;;6.25;4.85;;;15.40;68.70;;;;;;5094630;28;20024;-84
2021/06/02 04:32:12;;;;;;;10.30;5.15;;;15.40;68.30;;;;;;5091606;28;20024;-81
2021/06/02 04:34:38;;;;;;;7.63;4.38;;;15.50;68.90;;;;;;5072570;28;20058;-80
2021/06/02 04:37:06;;;;;;;7.78;4.75;;;15.50;68.30;;;;;;5074019;28;20043;-77
2021/06/02 04:39:33;;;;;;;8.32;5.20;;;15.50;68.00;;;;;;5112346;28;20480;-78
2021/06/02 04:42:01;;;;;;;8.70;4.70;;;15.60;68.00;;;;;;5090912;28;20080;-78
2021/06/02 04:44:28;;;;;;;7.57;5.07;;;15.70;67.50;;;;;;5093934;28;20023;-78
2021/06/02 04:46:55;;;;;;;9.13;5.03;;;15.70;67.20;;;;;;5093964;28;20274;-78
2021/06/02 04:49:26;;;;;;;11.48;4.97;;;15.80;67.80;;;;;;5087855;28;20031;-78
2021/06/02 04:52:01;;;;;;;10.02;4.95;;;15.90;67.00;;;;;;5094105;28;20073;-78
2021/06/02 04:54:55;;;;;;;9.38;5.53;;;15.90;66.70;;;;;;5106590;28;20024;-78
2021/06/02 04:57:58;;;;;;;6.20;4.63;;;16.00;66.70;;;;;;5079713;28;20453;-78
2021/06/02 05:00:54;;;;;;;12.35;5.18;;;16.10;66.20;;;;;;5074576;28;20043;-78
2021/06/02 05:03:57;;;;;;;7.38;4.95;;;16.10;66.20;;;;;;5111211;28;20073;-78
2021/06/02 05:06:54;;;;;;;8.50;4.95;;;16.20;66.00;;;;;;5085145;28;20032;-78
2021/06/02 05:09:36;;;;;;;8.75;4.70;;;16.30;65.80;;;;;;5111101;28;20027;-78
2021/06/02 05:12:14;;;;;;;11.75;4.38;;;16.40;65.70;;;;;;5093526;28;20034;-78
2021/06/02 05:14:58;;;;;;;12.60;4.82;;;16.50;65.40;;;;;;5110938;28;20361;-77
2021/06/02 05:17:36;;;;;;;10.68;4.57;;;16.60;65.30;;;;;;5093605;28;20507;-78
2021/06/02 05:23:20;;;;;;;8.90;4.32;;;16.80;64.60;;;;;;5111724;28;20027;-78
2021/06/02 05:26:23;;;;;;;7.43;3.65;;;16.90;64.50;;;;;;5112256;28;20062;-78
2021/06/02 05:29:41;;;;;;;5.55;3.55;;;17.00;63.90;;;;;;5092294;28;20020;-78
2021/06/02 05:32:31;;;;;;;8.35;4.40;;;17.10;63.70;;;;;;5109542;28;20015;-78
2021/06/02 05:35:25;;;;;;;7.95;3.80;;;17.20;63.10;;;;;;5096512;28;20539;-78
2021/06/02 05:38:24;;;;;;;8.02;3.55;;;17.30;62.90;;;;;;5112921;28;20035;-78
2021/06/02 05:41:33;;;;;;;6.90;3.50;;;17.40;62.20;;;;;;5120531;27;20027;-78
2021/06/02 05:44:07;;;;;;;9.82;3.97;;;17.50;61.90;;;;;;5115900;28;20013;-78
2021/06/02 05:46:51;;;;;;;8.30;3.50;;;17.60;61.80;;;;;;5095852;28;20107;-78
2021/06/02 05:49:35;;;;;;;6.72;3.60;;;17.70;61.70;;;;;;5086174;28;20426;-78
2021/06/02 05:52:20;;;;;;;4.53;3.30;;;17.90;61.60;;;;;;5108708;28;20032;-78
2021/06/02 05:55:06;;;;;;;7.60;3.80;;;18.00;61.30;;;;;;5110185;28;20153;-78
2021/06/02 05:57:53;;;;;;;6.43;3.90;;;18.10;60.90;;;;;;5102789;28;20403;-78
2021/06/02 06:00:36;;;;;;;7.55;4.00;;;18.20;60.40;;;;;;5115873;28;20046;-78
2021/06/02 06:03:20;;;;;;;5.13;3.58;;;18.30;60.00;;;;;;5093407;28;20027;-78
2021/06/02 06:06:24;;;;;;;7.05;3.42;;;18.40;59.80;;;;;;5093178;28;20036;-78
2021/06/02 06:08:50;;;;;;;5.45;3.55;;;18.50;59.80;;;;;;5031510;28;20482;-78
2021/06/02 06:11:45;;;;;;;10.43;3.92;;;18.60;59.50;;;;;;5009991;28;20099;-78
2021/06/02 06:14:26;;;;;;;7.07;3.53;;;18.70;59.10;;;;;;5068222;28;20510;-78
2021/06/02 06:17:42;;;;;;;4.95;3.17;;;18.80;59.00;;;;;;5114113;28;20421;-78
2021/06/02 06:20:46;;;;;;;7.22;3.20;;;18.90;58.70;;;;;;5091176;28;21664;-78
2021/06/02 06:23:42;;;;;;;6.50;3.67;;;19.10;58.60;;;;;;5111715;28;20488;-77
2021/06/02 06:26:16;;;;;;;9.30;3.70;;;19.20;58.10;;;;;;5078413;28;20488;-77
2021/06/02 06:29:15;;;;;;;8.27;3.90;;;19.30;58.40;;;;;;5108010;28;20058;-78
2021/06/02 06:31:44;;;;;;;7.60;3.17;;;19.50;57.00;;;;;;5087263;28;20028;-78
2021/06/02 06:34:31;;;;;;;;;;;;;;;;;;;;;
2021/06/02 06:36:59;;;;;;;5.55;3.42;;;19.80;56.90;;;;;;5116094;28;20020;-77
2021/06/02 06:39:32;;;;;;;9.35;3.05;;;20.00;56.60;;;;;;5113239;28;20023;-79
2021/06/02 06:42:00;;;;;;;6.47;3.08;;;20.10;55.90;;;;;;5105535;28;20021;-79
2021/06/02 06:44:27;;;;;;;7.95;2.88;;;20.30;54.80;;;;;;5078480;28;20082;-78
2021/06/02 06:46:55;;;;;;;7.28;3.25;;;20.40;54.80;;;;;;5095851;28;20484;-78
2021/06/02 06:49:23;;;;;;;5.33;3.03;;;20.60;54.50;;;;;;5083811;28;20054;-79
2021/06/02 06:51:52;;;;;;;6.97;3.13;;;20.80;54.30;;;;;;5080434;28;20170;-79
2021/06/02 06:54:20;;;;;;;5.97;2.47;;;21.00;53.60;;;;;;5090567;28;20391;-78
2021/06/02 06:56:47;;;;;;;9.77;2.70;;;21.10;52.80;;;;;;5090721;28;20127;-78
2021/06/02 06:59:18;;;;;;;5.22;2.75;;;21.30;52.70;;;;;;5092676;28;20425;-78
2021/06/02 07:01:44;;;;;;;6.57;2.80;;;21.40;52.00;;;;;;5084731;28;20032;-82
2021/06/02 07:04:11;;;;;;;5.25;2.50;;;21.50;51.70;;;;;;5091024;28;20052;-83
2021/06/02 07:06:39;;;;;;;6.55;2.20;;;21.70;51.30;;;;;;5094319;28;20434;-82
2021/06/02 07:09:06;;;;;;;9.20;2.75;;;21.80;51.00;;;;;;5094146;28;20035;-83
2021/06/02 07:11:37;;;;;;;5.60;2.67;;;22.00;50.00;;;;;;5076765;28;20032;-82
2021/06/02 07:14:04;;;;;;;8.52;2.40;;;22.10;50.10;;;;;;5072555;28;20036;-83
2021/06/02 07:16:31;;;;;;;5.85;2.58;;;22.20;49.80;;;;;;5053358;28;20036;-82
2021/06/02 07:19:00;;;;;;;5.38;2.33;;;22.30;49.70;;;;;;5052162;28;20032;-82
2021/06/02 07:21:26;;;;;;;4.28;2.53;;;22.50;49.50;;;;;;5072685;28;20465;-83
2021/06/02 07:23:52;;;;;;;4.15;2.35;;;22.60;49.10;;;;;;5078157;28;20035;-82
2021/06/02 07:26:18;;;;;;;8.15;2.55;;;22.70;48.70;;;;;;5080075;28;20066;-83
2021/06/02 07:28:44;;;;;;;29.38;5.70;;;22.80;48.60;;;;;;5091102;28;20032;-83
2021/06/02 07:31:10;;;;;;;19.40;3.58;;;22.90;48.50;;;;;;5071200;28;20033;-83
2021/06/02 07:33:36;;;;;;;70.03;11.25;;;23.00;48.00;;;;;;5072605;28;20046;-83
2021/06/02 07:36:08;;;;;;;12.18;3.20;;;23.20;47.90;;;;;;5092574;28;20024;-83
2021/06/02 07:38:34;;;;;;;3.58;2.00;;;23.30;47.00;;;;;;5087801;28;20516;-83
2021/06/02 07:41:00;;;;;;;7.57;2.25;;;23.30;46.50;;;;;;5086024;28;20024;-83
2021/06/02 07:43:25;;;;;;;4.75;2.15;;;23.40;46.50;;;;;;5091957;28;20028;-83
2021/06/02 07:45:51;;;;;;;3.20;2.22;;;23.50;46.30;;;;;;5074632;28;20030;-77
2021/06/02 07:48:16;;;;;;;3.63;2.20;;;23.70;46.50;;;;;;5084692;28;20028;-77
2021/06/02 07:50:42;;;;;;;5.68;2.40;;;23.80;46.30;;;;;;5080639;28;20024;-77
2021/06/02 07:53:08;;;;;;;8.18;2.53;;;23.90;46.40;;;;;;5074870;28;20499;-78
2021/06/02 07:55:34;;;;;;;3.35;2.17;;;24.00;46.00;;;;;;5091029;28;20039;-78
2021/06/02 07:58:00;;;;;;;6.13;2.00;;;24.10;45.50;;;;;;5094577;28;20028;-77
2021/06/02 08:00:26;;;;;;;4.93;2.00;;;24.30;44.90;;;;;;5095212;28;20028;-78
2021/06/02 08:02:53;;;;;;;4.95;2.10;;;24.30;44.60;;;;;;5112222;28;20159;-77
2021/06/02 08:05:19;;;;;;;3.13;2.08;;;24.40;44.90;;;;;;5104434;28;20024;-77
2021/06/02 08:07:46;;;;;;;3.83;2.05;;;24.60;45.00;;;;;;5094757;28;20042;-77
2021/06/02 08:10:13;;;;;;;5.50;2.33;;;24.70;44.90;;;;;;5083655;28;20039;-77
2021/06/02 08:12:40;;;;;;;9.40;2.78;;;24.80;44.70;;;;;;5058722;28;20032;-77
2021/06/02 08:15:08;;;;;;;5.35;2.20;;;24.90;44.60;;;;;;5093882;28;20016;-77
2021/06/02 08:17:34;;;;;;;4.03;2.10;;;25.10;44.50;;;;;;5064262;28;20034;-77
2021/06/02 08:20:00;;;;;;;4.97;2.22;;;25.10;43.20;;;;;;5093791;28;20059;-76
2021/06/02 08:22:26;;;;;;;6.82;2.25;;;25.20;42.70;;;;;;5066196;28;20052;-76
2021/06/02 08:24:51;;;;;;;5.13;2.40;;;25.30;43.30;;;;;;5113064;28;20102;-76
2021/06/02 08:27:17;;;;;;;6.32;2.30;;;25.50;43.00;;;;;;5092162;28;20537;-75
2021/06/02 08:29:43;;;;;;;6.10;2.00;;;25.60;42.90;;;;;;5082160;28;20059;-76
2021/06/02 08:32:09;;;;;;;3.70;1.80;;;25.80;41.90;;;;;;5092739;28;20492;-75
2021/06/02 08:34:36;;;;;;;3.22;2.15;;;25.90;41.10;;;;;;5078059;28;20039;-75
2021/06/02 08:37:05;;;;;;;3.63;2.05;;;26.00;40.70;;;;;;5105271;28;20107;-77
2021/06/02 08:39:33;;;;;;;8.07;1.83;;;26.10;40.20;;;;;;5093072;28;20028;-77
2021/06/02 08:41:58;;;;;;;9.50;2.30;;;26.10;40.50;;;;;;5096209;28;20372;-79
2021/06/02 08:44:24;;;;;;;5.28;1.70;;;26.20;39.90;;;;;;5093007;28;20028;-79
2021/06/02 08:46:50;;;;;;;7.35;1.70;;;26.30;39.80;;;;;;5074497;28;20024;-80
2021/06/02 08:49:18;;;;;;;4.85;1.98;;;26.40;39.20;;;;;;5092255;28;20035;-79
2021/06/02 08:51:45;;;;;;;5.60;2.00;;;26.50;38.70;;;;;;5099223;28;20027;-80
2021/06/02 08:54:10;;;;;;;11.10;1.95;;;26.50;38.60;;;;;;5117134;28;20480;-79
2021/06/02 08:56:41;;;;;;;8.25;1.52;;;26.70;38.00;;;;;;5116572;28;20062;-79
2021/06/02 08:59:07;;;;;;;7.07;1.90;;;26.70;37.40;;;;;;5112548;28;20539;-79
2021/06/02 09:01:34;;;;;;;3.83;1.60;;;26.90;37.20;;;;;;5116446;28;20080;-79
2021/06/02 09:04:04;;;;;;;3.15;1.92;;;27.00;37.20;;;;;;5116253;28;20044;-79
2021/06/02 09:06:31;;;;;;;6.15;1.90;;;27.10;37.10;;;;;;5116418;28;20487;-79
2021/06/02 09:08:57;;;;;;;5.95;2.35;;;27.20;37.30;;;;;;5105146;28;21676;-79
2021/06/02 09:11:23;;;;;;;8.18;1.77;;;27.30;37.10;;;;;;5085121;28;20032;-81
2021/06/02 09:13:49;;;;;;;3.10;1.80;;;27.40;37.10;;;;;;5111124;28;20454;-81
2021/06/02 09:16:19;;;;;;;6.60;1.83;;;27.50;37.00;;;;;;5114511;28;20070;-81
2021/06/02 09:19:09;;;;;;;3.88;1.60;;;27.60;37.00;;;;;;5095403;28;20052;-80
2021/06/02 09:21:38;;;;;;;7.18;2.03;;;27.70;35.70;;;;;;5095134;28;20040;-75
2021/06/02 09:24:05;;;;;;;5.07;1.90;;;27.80;35.40;;;;;;5097203;28;20515;-76
2021/06/02 09:26:32;;;;;;;4.35;1.60;;;27.90;35.00;;;;;;5079360;28;20123;-75
2021/06/02 09:29:09;;;;;;;4.10;1.73;;;27.90;34.50;;;;;;5100071;28;20474;-76
2021/06/02 09:31:44;;;;;;;3.75;1.50;;;28.00;34.30;;;;;;5081567;28;20032;-76
2021/06/02 09:34:26;;;;;;;6.15;1.75;;;28.00;33.20;;;;;;5114827;28;20027;-76
2021/06/02 09:36:54;;;;;;;7.40;1.60;;;28.10;33.10;;;;;;5090329;28;20488;-75
2021/06/02 09:39:23;;;;;;;6.10;1.70;;;28.20;33.10;;;;;;5113888;28;20055;-75
2021/06/02 09:41:57;;;;;;;4.05;1.60;;;28.20;33.00;;;;;;5109083;28;20039;-75
2021/06/02 09:44:28;;;;;;;4.97;1.98;;;28.30;32.60;;;;;;5077343;28;20031;-77
2021/06/02 09:47:05;;;;;;;6.20;1.40;;;28.30;31.60;;;;;;5102843;28;20085;-77
2021/06/02 09:49:45;;;;;;;3.08;1.60;;;28.30;32.00;;;;;;5095015;28;20552;-77
2021/06/02 09:52:10;;;;;;;1.75;1.40;;;28.40;31.50;;;;;;5097496;28;20089;-79
2021/06/02 09:54:36;;;;;;;4.15;1.38;;;28.40;31.40;;;;;;5078738;28;20019;-78
2021/06/02 09:57:10;;;;;;;3.05;1.30;;;28.40;31.30;;;;;;5080608;28;20113;-79
2021/06/02 09:59:56;;;;;;;3.20;1.30;;;28.40;31.00;;;;;;5062271;28;20123;-77
2021/06/02 10:02:22;;;;;;;2.65;1.50;;;28.50;31.20;;;;;;5098282;28;20031;-78
2021/06/02 10:05:03;;;;;;;4.13;1.30;;;28.60;30.90;;;;;;5060491;28;20024;-78
2021/06/02 10:07:29;;;;;;;5.03;1.10;;;28.60;30.60;;;;;;5078404;28;20052;-78
2021/06/02 10:10:05;;;;;;;4.65;1.40;;;28.70;30.30;;;;;;5097512;28;20070;-78
2021/06/02 10:12:31;;;;;;;4.18;1.00;;;28.70;30.20;;;;;;5092785;28;20028;-77
2021/06/02 10:14:58;;;;;;;2.00;1.30;;;28.80;29.90;;;;;;5095517;28;20028;-84
2021/06/02 10:17:32;;;;;;;4.70;1.20;;;28.90;30.20;;;;;;5077502;28;20442;-82
2021/06/02 10:20:04;;;;;;;1.80;1.10;;;29.10;30.30;;;;;;5102110;28;20045;-84
2021/06/02 10:22:30;;;;;;;3.20;1.50;;;29.20;29.90;;;;;;5081750;28;20391;-83
2021/06/02 10:25:02;;;;;;;2.45;1.27;;;29.20;29.30;;;;;;5110611;28;20024;-85
2021/06/02 10:27:28;;;;;;;2.92;1.30;;;29.20;30.10;;;;;;5091119;28;20042;-84
2021/06/02 10:29:54;;;;;;;3.40;1.40;;;29.30;29.90;;;;;;5115582;28;20031;-84
2021/06/02 10:32:22;;;;;;;2.55;1.15;;;29.30;29.90;;;;;;5080468;28;20036;-84
2021/06/02 10:34:48;;;;;;;4.75;1.33;;;29.40;30.70;;;;;;5112166;28;20027;-84
2021/06/02 10:37:16;;;;;;;2.70;1.38;;;29.40;30.50;;;;;;5115178;28;20081;-84
2021/06/02 10:39:52;;;;;;;1.65;1.20;;;29.50;30.00;;;;;;5115251;28;20036;-84
2021/06/02 10:42:28;;;;;;;4.20;1.27;;;29.50;29.20;;;;;;5115156;28;20031;-82
2021/06/02 10:45:00;;;;;;;2.20;1.10;;;29.50;29.90;;;;;;5115465;28;20022;-82
2021/06/02 10:47:27;;;;;;;2.28;1.10;;;29.50;29.10;;;;;;5096710;28;20435;-82
2021/06/02 10:49:53;;;;;;;6.82;1.20;;;29.50;29.10;;;;;;5097215;28;20034;-82
2021/06/02 10:52:40;;;;;;;2.10;1.10;;;29.50;28.90;;;;;;5115330;28;20031;-82
2021/06/02 10:55:31;;;;;;;3.53;1.30;;;29.50;29.60;;;;;;5096955;28;20069;-82
2021/06/02 10:58:33;;;;;;;6.50;1.33;;;29.60;30.20;;;;;;5115059;28;20116;-82
2021/06/02 11:01:04;;;;;;;3.35;0.90;;;29.70;29.20;;;;;;5115171;28;20019;-82
2021/06/02 11:03:30;;;;;;;3.78;1.30;;;29.70;29.10;;;;;;5114792;28;20494;-82
2021/06/02 11:06:14;;;;;;;4.90;1.35;;;29.70;29.30;;;;;;5096593;28;20135;-82
2021/06/02 11:08:52;;;;;;;5.18;1.48;;;29.70;29.00;;;;;;5096364;28;20407;-82
2021/06/02 11:11:30;;;;;;;4.25;1.65;;;29.70;29.80;;;;;;5095582;28;20084;-82
2021/06/02 11:14:17;;;;;;;4.35;1.02;;;29.80;30.30;;;;;;5096584;28;20023;-82
2021/06/02 11:16:53;;;;;;;2.50;1.25;;;29.90;29.90;;;;;;5096517;28;20023;-82
2021/06/02 11:19:21;;;;;;;3.63;1.10;;;30.00;29.40;;;;;;5114583;28;20051;-82
2021/06/02 11:21:53;;;;;;;2.75;1.23;;;30.20;29.30;;;;;;5096526;28;20030;-82
2021/06/02 11:24:30;;;;;;;3.25;1.17;;;30.30;29.10;;;;;;5114555;28;20028;-82
2021/06/02 11:27:11;;;;;;;1.80;1.20;;;30.30;29.40;;;;;;5114360;28;20093;-82
2021/06/02 11:29:49;;;;;;;3.20;1.20;;;30.20;29.10;;;;;;5096038;28;20027;-82
2021/06/02 11:32:26;;;;;;;4.45;1.10;;;30.30;29.10;;;;;;5096014;28;20118;-82
2021/06/02 11:34:56;;;;;;;9.18;1.20;;;30.30;28.30;;;;;;5096800;28;20062;-82
2021/06/02 11:37:30;;;;;;;5.28;1.30;;;30.30;28.30;;;;;;5096069;28;20073;-82
2021/06/02 11:40:01;;;;;;;2.58;1.30;;;30.30;28.50;;;;;;5114171;28;20073;-82
2021/06/02 11:42:29;;;;;;;5.32;1.25;;;30.30;28.50;;;;;;5079048;28;20023;-82
2021/06/02 11:45:09;;;;;;;2.03;1.00;;;30.40;29.20;;;;;;5095883;28;20024;-82
2021/06/02 11:47:36;;;;;;;3.90;1.13;;;30.40;28.40;;;;;;5114036;28;20024;-82
2021/06/02 11:50:07;;;;;;;3.60;1.02;;;30.40;28.30;;;;;;5079194;28;20058;-82
2021/06/02 11:52:34;;;;;;;2.65;1.10;;;30.50;28.30;;;;;;5095605;28;20110;-82
2021/06/02 11:55:01;;;;;;;2.45;1.17;;;30.60;28.40;;;;;;5095892;28;20027;-82
2021/06/02 11:57:32;;;;;;;3.50;1.33;;;30.60;28.90;;;;;;5095219;28;20043;-82
2021/06/02 12:00:00;;;;;;;2.72;1.17;;;30.70;28.70;;;;;;5113761;28;20419;-82
2021/06/02 12:02:26;;;;;;;4.25;1.30;;;30.80;29.00;;;;;;5113959;28;20015;-82
2021/06/02 12:04:52;;;;;;;4.35;1.35;;;30.80;28.40;;;;;;5079021;28;20028;-82
2021/06/02 12:07:27;;;;;;;3.20;1.20;;;30.90;28.60;;;;;;5095644;28;20030;-82
2021/06/02 12:09:55;;;;;;;3.38;1.08;;;30.90;28.30;;;;;;5095605;28;20031;-82
2021/06/02 12:12:22;;;;;;;2.90;1.00;;;31.00;28.00;;;;;;5113862;28;20088;-82
2021/06/02 12:14:53;;;;;;;4.88;0.98;;;31.10;28.20;;;;;;5095533;28;20028;-82
2021/06/02 12:17:25;;;;;;;2.40;1.10;;;31.10;28.00;;;;;;5095125;28;20488;-82
2021/06/02 12:19:51;;;;;;;2.25;1.20;;;31.10;27.90;;;;;;5095365;28;20043;-81
2021/06/02 12:22:20;;;;;;;2.72;1.10;;;31.20;28.30;;;;;;5078562;28;20028;-81
2021/06/02 12:25:08;;;;;;;3.30;1.15;;;31.20;28.10;;;;;;5099310;28;20028;-81
2021/06/02 12:27:41;;;;;;;2.80;1.15;;;31.20;28.40;;;;;;5117534;28;20094;-81
2021/06/02 12:30:13;;;;;;;2.65;1.20;;;31.30;28.50;;;;;;5117614;28;20140;-81
2021/06/02 12:32:50;;;;;;;4.20;1.20;;;31.30;28.20;;;;;;5117496;28;20030;-81
2021/06/02 12:35:35;;;;;;;3.72;1.40;;;31.30;28.00;;;;;;5117797;28;20113;-81
2021/06/02 12:38:05;;;;;;;4.43;1.30;;;31.40;27.90;;;;;;5117520;28;20031;-81
2021/06/02 12:40:52;;;;;;;5.30;1.23;;;31.40;28.10;;;;;;5117699;28;20027;-81
2021/06/02 12:43:20;;;;;;;6.13;1.33;;;31.30;27.60;;;;;;5117857;28;20072;-81
2021/06/02 12:45:47;;;;;;;1.30;1.00;;;31.30;27.90;;;;;;5117793;28;20016;-81
2021/06/02 12:48:17;;;;;;;3.83;1.25;;;31.30;28.30;;;;;;5099620;28;20391;-81
2021/06/02 12:50:49;;;;;;;1.45;1.02;;;31.40;28.10;;;;;;5117511;28;20471;-81
2021/06/02 12:53:18;;;;;;;4.65;1.13;;;31.40;28.00;;;;;;5117502;28;20035;-81
2021/06/02 12:55:46;;;;;;;3.50;1.17;;;31.40;27.30;;;;;;5117312;28;20082;-81
2021/06/02 12:58:19;;;;;;;6.90;1.27;;;31.20;27.70;;;;;;5117425;28;20023;-81
2021/06/02 13:00:47;;;;;;;2.97;1.25;;;31.20;28.20;;;;;;5116986;28;20559;-81
2021/06/02 13:03:17;;;;;;;;;;;31.30;28.30;;;;;;5117174;28;20128;-81
2021/06/02 13:05:47;;;;;;;0.82;0.82;;;31.30;28.20;;;;;;5116761;28;19998;-81
2021/06/02 13:08:14;;;;;;;1.77;1.10;;;31.30;28.10;;;;;;5116925;28;20024;-81
2021/06/02 13:10:42;;;;;;;4.38;1.40;;;31.40;27.50;;;;;;5098857;28;20530;-81
2021/06/02 13:13:10;;;;;;;1.48;0.90;;;31.40;27.60;;;;;;5117018;28;20023;-81
2021/06/02 13:15:40;;;;;;;4.57;1.00;;;31.40;27.30;;;;;;5116997;28;20035;-81
2021/06/02 13:18:18;;;;;;;2.10;0.93;;;31.50;27.70;;;;;;5116818;28;20032;-81
2021/06/02 13:20:43;;;;;;;1.60;1.00;;;31.60;27.20;;;;;;5117147;28;20484;-81
2021/06/02 13:23:19;;;;;;;4.70;1.45;;;31.70;27.50;;;;;;5117267;28;20078;-81
2021/06/02 13:25:59;;;;;;;6.63;1.13;;;31.70;27.20;;;;;;5116868;28;20488;-81
2021/06/02 13:28:24;;;;;;;6.72;1.10;;;31.80;26.80;;;;;;5116543;28;20020;-81
2021/06/02 13:30:55;;;;;;;2.22;1.10;;;31.80;27.10;;;;;;5116680;28;20077;-81